Latest Weather Observations for Mortlake

IDV60801

Issued at 3:35 pm EST Wednesday 1 October 2014 (issued every 30 minutes, with the page automatically refreshed every 10 minutes)

About weather observations | Map of weather stations | Latest weather observations for VIC | Other Formats
Station Details ID: 090176 Name: MORTLAKE RACECOURSE Lat: -38.07 Lon: 142.77 Height: 130.0 m
Data from the previous 72 hours. | See also: Recent months at Mortlake
Date/Time
EST
Temp
°C
App
Temp
°C
Dew
Point
Rel
Hum
%
Delta-T
°C
Wind Press
QNH
hPa
Press
MSL
hPa
Rain
since 9 am
mm
Dir
 
Spd
km/h
Gust
km/h
Spd
kts
Gust
kts
01/03:30pm 13.1 8.2 6.7 65 3.1 WSW 22 30 12 16 1024.8 1024.9 0.2
01/03:00pm 12.2 7.3 6.7 69 2.6 SW 22 33 12 18 1024.9 1025.0 0.2
01/02:30pm 13.5 8.3 7.1 65 3.1 SW 24 33 13 18 1024.9 1025.0 0.2
01/02:00pm 12.4 7.1 6.7 68 2.7 SW 24 33 13 18 1025.2 1025.3 0.2
01/01:30pm 12.2 6.5 6.7 69 2.6 SW 26 41 14 22 1025.1 1025.2 0.2
01/01:00pm 12.0 7.3 5.9 66 2.9 WSW 20 32 11 17 1025.1 1025.2 0.2
01/12:30pm 11.8 7.7 6.3 69 2.6 WSW 17 32 9 17 1025.2 1025.3 0.2
01/12:00pm 13.1 8.3 7.5 69 2.7 WSW 22 30 12 16 1024.9 1025.0 0.2
01/11:30am 13.0 8.6 7.2 68 2.8 SW 20 33 11 18 1024.9 1025.0 0.2
01/11:00am 10.5 5.1 6.5 76 1.9 SW 24 33 13 18 1025.1 1025.2 0.2
01/10:30am 11.9 6.0 5.8 66 2.9 WSW 26 39 14 21 1025.1 1025.2 0.0
01/10:00am 11.4 6.8 6.5 72 2.3 WSW 20 28 11 15 1024.7 1024.8 0.0
01/09:30am 10.9 7.5 7.6 80 1.6 WSW 15 24 8 13 1024.5 1024.6 0.0
01/09:00am 10.6 6.6 6.7 77 1.8 WSW 17 26 9 14 1024.1 1024.2 5.2
01/08:30am 9.8 6.8 7.6 86 1.1 W 13 20 7 11 1023.6 1023.7 5.2
01/08:00am 7.6 4.8 6.9 95 0.3 WNW 11 17 6 9 1023.1 1023.2 5.2
01/07:30am 5.8 3.5 5.7 99 0.0 WNW 7 11 4 6 1022.7 1022.8 5.2
01/07:00am 4.5 1.6 4.4 99 0.0 NW 9 11 5 6 1022.3 1022.4 4.8
01/06:30am 2.6 -0.7 2.5 99 0.0 NW 9 9 5 5 1021.7 1021.9 4.8
01/06:00am 3.0 -0.6 2.9 99 0.0 WNW 11 15 6 8 1021.0 1021.2 4.8
01/05:30am 1.9 -1.5 1.8 99 0.0 NW 9 11 5 6 1020.5 1020.7 4.8
01/05:00am 2.1 -1.3 2.0 99 0.0 NNW 9 11 5 6 1020.1 1020.3 4.8
01/04:30am 3.9 1.1 3.3 96 0.2 W 7 13 4 7 1019.8 1020.0 4.8
01/04:00am 3.2 0.0 2.8 97 0.2 WNW 9 11 5 6 1019.3 1019.4 4.2
01/03:30am 4.8 1.8 4.2 96 0.3 W 9 11 5 6 1019.2 1019.3 4.2
01/03:00am 5.0 2.1 4.6 97 0.2 SW 9 15 5 8 1019.8 1020.0 4.0
01/02:30am 6.1 1.3 4.7 91 0.6 W 19 28 10 15 1018.6 1018.7 3.6
01/02:00am 5.5 1.4 4.5 93 0.4 W 15 20 8 11 1018.4 1018.5 3.6
01/01:30am 4.2 0.7 3.6 96 0.2 WNW 11 19 6 10 1018.2 1018.3 3.6
01/01:00am 4.7 1.3 3.8 94 0.4 WNW 11 15 6 8 1017.9 1018.0 3.6
01/12:30am 5.2 1.5 4.5 95 0.3 WNW 13 19 7 10 1017.8 1017.9 3.6
01/12:00am 6.5 2.2 5.1 91 0.6 WSW 17 28 9 15 1017.2 1017.3 3.6
 
Date/Time
EST
Temp
°C
App
Temp
°C
Dew
Point
Rel
Hum
%
Delta-T
°C
Wind Press
QNH
hPa
Press
MSL
hPa
Rain
since 9 am
mm
Dir
 
Spd
km/h
Gust
km/h
Spd
kts
Gust
kts
30/11:30pm 6.3 1.9 4.6 89 0.7 WSW 17 26 9 14 1016.7 1016.8 3.6
30/11:18pm 6.5 0.0 4.5 87 0.9 WSW 28 57 15 31 1017.1 1017.2 3.4
30/11:00pm 6.7 1.5 3.7 81 1.3 W 20 30 11 16 1016.2 1016.3 3.4
30/10:30pm 6.1 1.2 4.9 92 0.5 W 20 32 11 17 1016.2 1016.3 3.4
30/10:00pm 6.3 1.4 5.3 93 0.4 W 20 32 11 17 1015.8 1015.9 3.4
30/09:30pm 6.2 1.5 5.0 92 0.5 W 19 30 10 16 1015.4 1015.5 3.2
30/09:00pm 5.7 1.7 4.8 94 0.4 W 15 37 8 20 1015.1 1015.2 2.6
30/08:30pm 5.0 0.9 4.3 95 0.3 NW 15 19 8 10 1014.1 1014.2 2.2
30/08:00pm 5.4 1.2 3.9 90 0.6 NW 15 20 8 11 1013.7 1013.9 2.2
30/07:30pm 6.9 1.3 3.5 79 1.5 W 22 32 12 17 1013.1 1013.2 2.2
30/07:09pm 7.6 0.6 4.2 79 1.5 W 30 48 16 26 1012.7 1012.8 2.2
30/07:00pm 8.2 -0.2 3.7 73 2.0 W 37 48 20 26 1012.7 1012.8 2.2
30/06:59pm 8.5 0.1 3.8 72 2.0 W 37 46 20 25 1012.6 1012.7 2.2
30/06:30pm 9.2 4.5 5.0 75 1.9 W 19 28 10 15 1011.9 1012.0 2.2
30/06:00pm 9.9 4.2 4.9 71 2.3 W 24 35 13 19 1011.4 1011.5 2.2
30/05:47pm 10.3 3.8 4.7 68 2.5 W 28 50 15 27 1011.0 1011.1 2.2
30/05:30pm 9.8 5.2 6.3 79 1.6 W 20 32 11 17 1010.7 1010.8 2.2
30/05:00pm 9.9 5.0 6.8 81 1.5 W 22 33 12 18 1010.2 1010.3 2.2
30/04:30pm 9.7 2.1 5.9 77 1.8 WSW 35 57 19 31 1009.8 1009.9 2.0
30/04:00pm 10.9 3.7 5.7 70 2.4 WSW 33 57 18 31 1009.0 1009.1 2.0
30/03:36pm 10.3 4.4 7.4 82 1.4 W 28 46 15 25 1008.4 1008.5 2.0
30/03:30pm 11.2 6.5 7.7 79 1.7 W 22 37 12 20 1008.2 1008.3 2.0
30/03:00pm 11.0 5.2 7.9 81 1.5 W 28 44 15 24 1008.1 1008.2 2.0
30/02:30pm 9.5 3.6 7.4 87 1.0 W 28 48 15 26 1007.7 1007.8 2.0
30/02:00pm 9.8 2.1 8.6 92 0.6 WSW 39 63 21 34 1007.3 1007.4 1.4
30/01:30pm 11.0 1.7 9.3 89 0.9 W 48 83 26 45 1006.1 1006.1 1.2
30/01:24pm 12.6 4.4 10.5 87 1.1 WSW 44 74 24 40 1005.6 1005.7 1.2
30/01:10pm 13.3 6.8 11.7 90 0.9 WNW 37 59 20 32 1005.0 1005.1 1.0
30/01:00pm 13.0 6.9 11.9 93 0.6 W 35 54 19 29 1005.0 1005.1 1.0
30/12:42pm 12.9 5.3 10.6 86 1.2 W 41 61 22 33 1004.8 1004.9 0.2
30/12:40pm 14.4 6.3 10.6 78 2.0 W 44 61 24 33 1004.6 1004.7 0.2
30/12:30pm 15.8 7.1 11.2 74 2.5 NW 48 67 26 36 1003.8 1003.9 0.0
30/12:00pm 17.7 10.6 10.8 64 3.7 NW 39 59 21 32 1003.4 1003.5 0.0
30/11:39am 17.4 9.4 11.0 66 3.5 NW 44 65 24 35 1003.8 1003.9 0.0
30/11:30am 17.4 8.5 10.5 64 3.7 NW 48 65 26 35 1003.9 1004.0 0.0
30/11:24am 17.2 7.9 10.6 65 3.5 NW 50 69 27 37 1004.2 1004.3 0.0
30/11:19am 17.2 6.6 9.9 62 3.9 NW 56 69 30 37 1004.2 1004.3 0.0
30/11:00am 17.8 11.7 11.8 68 3.3 NW 35 54 19 29 1004.7 1004.8 0.0
30/10:33am 16.4 8.2 10.5 68 3.1 NW 44 65 24 35 1005.4 1005.5 0.0
30/10:30am 16.4 7.3 10.0 66 3.4 NW 48 65 26 35 1005.1 1005.2 0.0
30/10:11am 17.4 9.3 10.8 65 3.6 NW 44 65 24 35 1005.3 1005.4 0.0
30/10:00am 17.2 10.1 11.0 67 3.4 NW 39 54 21 29 1005.6 1005.7 0.0
30/09:33am 16.1 8.0 10.2 68 3.1 NW 43 61 23 33 1005.9 1005.9 0.0
30/09:30am 16.3 8.7 10.6 69 3.0 NW 41 57 22 31 1006.2 1006.2 0.0
30/09:22am 16.2 9.4 10.7 70 2.9 NW 37 57 20 31 1006.2 1006.2 0.0
30/09:00am 16.0 10.1 11.0 72 2.7 NW 33 44 18 24 1006.5 1006.5 0.0
30/08:34am 15.6 10.7 11.4 76 2.3 NNW 28 52 15 28 1006.8 1006.8 0.0
30/08:30am 15.6 11.1 11.4 76 2.3 NNW 26 33 14 18 1006.8 1006.8 0.0
30/08:00am 13.3 10.4 11.0 86 1.2 N 17 20 9 11 1007.2 1007.3 0.0
30/07:30am 12.2 9.5 10.3 88 1.0 N 15 20 8 11 1007.5 1007.6 0.0
30/07:00am 11.7 8.5 9.9 89 0.9 N 17 20 9 11 1007.6 1007.7 0.0
30/06:30am 11.7 7.9 9.9 89 0.9 NNW 20 30 11 16 1007.5 1007.6 0.0
30/06:00am 11.7 7.3 10.3 91 0.7 NNW 24 32 13 17 1008.0 1008.1 0.0
30/05:30am 11.2 7.5 10.3 94 0.5 NNW 20 28 11 15 1008.3 1008.4 0.0
30/05:00am 10.6 6.9 9.5 93 0.6 NNW 19 24 10 13 1008.4 1008.5 0.0
30/04:30am 9.9 6.4 8.7 92 0.6 NW 17 22 9 12 1008.6 1008.7 0.0
30/04:00am 9.5 5.9 8.4 93 0.5 NNW 17 20 9 11 1008.8 1008.9 0.0
30/03:30am 9.6 6.4 8.5 93 0.5 NNW 15 19 8 10 1008.8 1008.9 0.0
30/03:00am 10.1 7.1 9.2 94 0.5 NNW 15 19 8 10 1008.9 1009.0 0.0
30/02:30am 9.2 6.4 8.4 95 0.4 NNW 13 17 7 9 1009.5 1009.6 0.0
30/02:00am 9.3 6.9 8.5 95 0.4 NW 11 15 6 8 1010.0 1010.1 0.0
30/01:30am 10.1 7.0 8.9 92 0.6 NNW 15 19 8 10 1010.3 1010.4 0.0
30/01:00am 9.0 6.1 8.2 95 0.4 NNW 13 15 7 8 1010.5 1010.6 0.0
30/12:30am 9.5 7.1 8.7 95 0.4 NNW 11 15 6 8 1010.7 1010.8 0.0
30/12:00am 8.3 6.4 7.7 96 0.3 NNW 7 9 4 5 1011.1 1011.2 0.0
 
Date/Time
EST
Temp
°C
App
Temp
°C
Dew
Point
Rel
Hum
%
Delta-T
°C
Wind Press
QNH
hPa
Press
MSL
hPa
Rain
since 9 am
mm
Dir
 
Spd
km/h
Gust
km/h
Spd
kts
Gust
kts
29/11:30pm 8.4 6.1 7.6 95 0.4 NNW 9 9 5 5 1011.4 1011.5 0.0
29/11:00pm 8.2 5.5 7.3 94 0.4 NW 11 13 6 7 1011.6 1011.7 0.0
29/10:30pm 8.7 6.1 7.6 93 0.5 NW 11 13 6 7 1011.8 1011.9 0.0
29/10:00pm 8.9 6.6 7.5 91 0.7 NW 9 13 5 7 1011.9 1012.0 0.0
29/09:30pm 9.7 7.6 8.1 90 0.8 NW 9 11 5 6 1012.0 1012.1 0.0
29/09:00pm 10.5 8.4 8.1 85 1.2 NW 9 11 5 6 1012.1 1012.2 0.0
29/08:30pm 13.2 9.4 8.9 75 2.2 W 19 26 10 14 1011.7 1011.8 0.0
29/08:00pm 13.7 10.5 10.1 79 1.9 WNW 17 22 9 12 1011.5 1011.6 0.0
29/07:30pm 10.4 8.9 8.5 88 0.9 NW 6 9 3 5 1011.0 1011.1 0.0
29/07:00pm 12.6 11.3 9.2 80 1.7 WNW 6 7 3 4 1010.8 1010.9 0.0
29/06:30pm 14.3 12.7 10.1 76 2.2 WNW 9 11 5 6 1010.7 1010.8 0.0
29/06:00pm 16.6 14.4 10.9 69 3.1 WNW 13 17 7 9 1010.5 1010.6 0.0
29/05:30pm 17.8 15.3 10.9 64 3.7 NW 15 22 8 12 1010.4 1010.5 0.0
29/05:00pm 18.4 15.0 11.2 63 3.9 NW 20 30 11 16 1010.4 1010.5 0.0
29/04:30pm 18.5 13.8 10.8 61 4.2 NW 26 33 14 18 1010.4 1010.5 0.0
29/04:00pm 18.8 13.3 10.6 59 4.5 NW 30 41 16 22 1010.5 1010.6 0.0
29/03:30pm 18.9 13.4 10.7 59 4.5 NW 30 41 16 22 1010.7 1010.8 0.0
29/03:00pm 19.0 14.1 11.3 61 4.2 NW 28 41 15 22 1010.9 1011.0 0.0
29/02:30pm 18.1 12.1 10.0 59 4.3 WNW 32 43 17 23 1011.3 1011.4 0.0
29/02:00pm 18.5 13.8 10.8 61 4.2 NW 26 43 14 23 1011.3 1011.4 0.0
29/01:30pm 18.3 13.3 10.9 62 4.0 NW 28 43 15 23 1011.5 1011.6 0.0
29/01:00pm 18.0 13.4 10.9 63 3.9 WNW 26 39 14 21 1011.9 1012.0 0.0
29/12:30pm 17.1 11.7 9.5 61 4.0 NNW 28 39 15 21 1012.0 1012.1 0.0
29/12:00pm 16.9 12.0 10.1 64 3.6 NNW 26 33 14 18 1012.3 1012.4 0.0
29/11:30am 15.9 11.4 10.0 68 3.1 WNW 24 32 13 17 1012.7 1012.8 0.0
29/11:00am 15.6 11.9 10.2 70 2.9 WNW 20 30 11 16 1013.1 1013.2 0.0
29/10:30am 14.8 10.2 9.8 72 2.6 WNW 24 33 13 18 1013.2 1013.4 0.0
29/10:00am 14.9 10.6 9.5 70 2.8 WNW 22 32 12 17 1013.2 1013.4 0.0
29/09:30am 14.4 9.8 9.8 74 2.4 WNW 24 33 13 18 1013.1 1013.2 0.0
29/09:00am 13.8 9.9 9.5 75 2.2 WNW 20 28 11 15 1012.9 1013.0 0.0
29/08:30am 13.3 9.9 11.4 88 1.0 WNW 20 28 11 15 1012.7 1012.8 0.0
29/08:00am 12.2 8.8 11.1 93 0.6 WNW 20 30 11 16 1012.4 1012.5 0.0
29/07:30am 10.7 8.0 10.5 99 0.1 NW 15 19 8 10 1012.3 1012.4 0.0
29/07:00am 8.4 6.3 8.3 99 0.0 NW 9 11 5 6 1012.3 1012.4 0.0
29/06:30am 7.1 4.7 7.0 99 0.0 NNW 9 13 5 7 1012.0 1012.1 0.0
29/06:00am 6.9 4.5 6.8 99 0.0 NNW 9 13 5 7 1011.7 1011.8 0.0
29/05:30am 7.7 5.1 7.6 99 0.0 NW 11 15 6 8 1011.2 1011.3 0.0
29/05:00am 7.5 5.2 7.4 99 0.0 NNW 9 13 5 7 1011.0 1011.1 0.0
29/04:30am 7.5 5.6 7.4 99 0.0 NW 7 9 4 5 1010.6 1010.7 0.0
29/04:00am 9.5 8.3 9.4 99 0.1 WNW 6 7 3 4 1010.4 1010.5 0.0
29/03:30am 10.2 8.9 9.9 98 0.2 WNW 7 15 4 8 1010.1 1010.2 0.0
29/03:00am 10.2 8.5 9.9 98 0.2 WNW 9 11 5 6 1009.8 1009.9 0.0
29/02:30am 11.1 9.2 10.6 97 0.3 WNW 11 17 6 9 1009.7 1009.8 0.0
29/02:00am 11.8 8.7 10.4 91 0.7 WNW 17 24 9 13 1009.6 1009.7 0.0
29/01:30am 11.5 7.8 10.1 91 0.7 NW 20 26 11 14 1009.3 1009.4 0.0
29/01:00am 11.1 6.9 9.7 91 0.7 NW 22 32 12 17 1009.4 1009.5 0.0
29/12:30am 10.4 6.7 9.3 93 0.6 NW 19 26 10 14 1009.2 1009.3 0.0
29/12:00am 9.7 6.2 8.6 93 0.5 NW 17 20 9 11 1009.3 1009.4 0.0
 
Date/Time
EST
Temp
°C
App
Temp
°C
Dew
Point
Rel
Hum
%
Delta-T
°C
Wind Press
QNH
hPa
Press
MSL
hPa
Rain
since 9 am
mm
Dir
 
Spd
km/h
Gust
km/h
Spd
kts
Gust
kts
28/11:30pm 9.7 6.5 8.6 93 0.5 NW 15 19 8 10 1009.0 1009.1 0.0
28/11:00pm 8.2 5.2 7.6 96 0.3 NNW 13 19 7 10 1008.8 1008.9 0.0
28/10:30pm 8.2 5.5 7.3 94 0.4 NW 11 13 6 7 1008.6 1008.7 0.0
28/10:00pm 8.9 5.9 7.7 92 0.6 NNW 13 15 7 8 1008.2 1008.3 0.0
28/09:30pm 8.2 5.8 7.0 92 0.6 NNW 9 11 5 6 1008.2 1008.3 0.0
28/09:00pm 9.3 7.4 7.7 90 0.8 NW 7 9 4 5 1007.3 1007.4 0.0
28/08:30pm 11.0 8.9 8.2 83 1.4 WNW 9 11 5 6 1006.9 1007.0 0.0
28/08:00pm 12.0 10.6 9.4 84 1.3 W 7 11 4 6 1006.8 1006.8 0.0
28/07:30pm 12.6 10.8 9.6 82 1.5 SW 9 15 5 8 1006.6 1006.6 0.0
28/07:00pm 13.6 11.2 10.2 80 1.8 SW 13 19 7 10 1005.7 1005.8 0.0
28/06:30pm 14.6 10.5 11.4 81 1.7 SW 24 35 13 19 1005.0 1005.1 0.0
28/06:00pm 15.7 10.4 12.6 82 1.7 SW 32 43 17 23 1004.6 1004.7 0.0
28/05:48pm 17.4 12.2 11.7 69 3.1 SW 30 37 16 20 1004.0 1004.1 0.0
28/05:30pm 22.5 16.6 9.0 42 7.3 W 30 39 16 21 1003.1 1003.2 0.0
28/05:00pm 23.4 17.9 9.0 40 7.8 WNW 28 44 15 24 1002.6 1002.7 0.0
28/04:30pm 24.9 18.1 9.2 37 8.6 WNW 35 65 19 35 1002.3 1002.4 0.0
28/04:28pm 24.7 18.7 10.2 40 8.1 NW 32 52 17 28 1002.3 1002.4 0.0
28/04:00pm 25.7 17.7 9.1 35 9.1 NW 41 57 22 31 1001.9 1002.0 0.0

Other Formats:

Comma delimited format used in spreadsheet applications
http://www.bom.gov.au/fwo/IDV60801/IDV60801.94840.axf

JavaScript Object Notation format (JSON) in row-major order
http://www.bom.gov.au/fwo/IDV60801/IDV60801.94840.json